createdAt,value
2019-02-05T00:00:41.041Z,20.08
2019-02-05T00:03:11.894Z,18.63
2019-02-05T00:05:40.602Z,19.50
2019-02-05T00:08:09.327Z,18.30
2019-02-05T00:10:37.880Z,18.70
2019-02-05T00:13:06.517Z,18.80
2019-02-05T00:15:35.701Z,19.00
2019-02-05T00:18:04.375Z,19.00
2019-02-05T00:20:33.060Z,18.33
2019-02-05T00:23:01.696Z,18.80
2019-02-05T00:25:30.232Z,19.42
2019-02-05T00:27:58.808Z,19.73
2019-02-05T00:30:27.663Z,19.07
2019-02-05T00:32:56.237Z,18.62
2019-02-05T00:35:27.733Z,19.00
2019-02-05T00:37:56.309Z,18.77
2019-02-05T00:40:24.853Z,19.13
2019-02-05T00:42:53.422Z,18.95
2019-02-05T00:45:22.508Z,18.45
2019-02-05T00:47:51.174Z,18.90
2019-02-05T00:50:20.098Z,18.43
2019-02-05T00:52:48.916Z,19.03
2019-02-05T00:55:19.007Z,19.20
2019-02-05T00:57:47.842Z,19.97
2019-02-05T01:00:33.796Z,18.23
2019-02-05T01:03:02.571Z,18.70
2019-02-05T01:05:31.477Z,18.83
2019-02-05T01:08:00.050Z,19.27
2019-02-05T01:10:28.729Z,18.47
2019-02-05T01:12:57.873Z,19.15
2019-02-05T01:15:26.495Z,19.23
2019-02-05T01:17:55.536Z,19.42
2019-02-05T01:20:25.414Z,19.50
2019-02-05T01:22:54.325Z,18.40
2019-02-05T01:25:23.111Z,19.37
2019-02-05T01:27:51.945Z,18.10
2019-02-05T01:30:23.100Z,18.50
2019-02-05T01:32:51.981Z,18.60
2019-02-05T01:35:21.098Z,19.40
2019-02-05T01:37:49.740Z,18.73
2019-02-05T01:40:21.009Z,18.27
2019-02-05T01:43:09.000Z,18.90
2019-02-05T01:45:37.684Z,19.23
2019-02-05T01:48:06.370Z,19.48
2019-02-05T01:50:34.947Z,20.60
2019-02-05T01:53:03.878Z,20.40
2019-02-05T01:55:32.445Z,20.57
2019-02-05T01:58:01.071Z,20.57
2019-02-05T02:00:32.633Z,20.45
2019-02-05T02:03:01.285Z,21.40
2019-02-05T02:05:30.005Z,20.40
2019-02-05T02:07:59.147Z,21.50
2019-02-05T02:10:29.745Z,20.50
2019-02-05T02:12:58.838Z,21.70
2019-02-05T02:15:27.532Z,20.68
2019-02-05T02:17:56.246Z,21.93
2019-02-05T02:20:25.253Z,21.63
2019-02-05T02:22:54.350Z,21.80
2019-02-05T02:25:23.073Z,20.80
2019-02-05T02:27:52.271Z,22.30
2019-02-05T02:30:26.400Z,22.40
2019-02-05T02:32:54.984Z,22.47
2019-02-05T02:35:23.528Z,21.97
2019-02-05T02:37:52.845Z,22.95
2019-02-05T02:40:21.490Z,21.83
2019-02-05T02:42:50.123Z,22.85
2019-02-05T02:45:18.865Z,22.90
2019-02-05T02:47:47.560Z,23.42
2019-02-05T02:50:20.593Z,23.75
2019-02-05T02:52:50.224Z,23.37
2019-02-05T02:55:18.961Z,25.25
2019-02-05T02:57:47.590Z,24.90
2019-02-05T03:00:21.102Z,24.90
2019-02-05T03:02:51.661Z,24.45
2019-02-05T03:05:24.611Z,24.00
2019-02-05T03:07:53.300Z,24.02
2019-02-05T03:10:26.537Z,23.83
2019-02-05T03:12:55.921Z,25.00
2019-02-05T03:15:24.598Z,24.60
2019-02-05T03:17:53.171Z,24.95
2019-02-05T03:20:21.899Z,25.57
2019-02-05T03:22:50.868Z,25.97
2019-02-05T03:25:21.769Z,24.45
2019-02-05T03:27:53.486Z,25.30
2019-02-05T03:30:22.770Z,24.77
2019-02-05T03:32:51.833Z,25.20
2019-02-05T03:35:21.055Z,25.67
2019-02-05T03:37:49.681Z,24.92
2019-02-05T03:40:27.989Z,23.87
2019-02-05T03:42:56.610Z,23.23
2019-02-05T03:45:27.633Z,24.07
2019-02-05T03:47:59.256Z,26.77
2019-02-05T03:50:29.166Z,24.97
2019-02-05T03:53:15.685Z,26.07
2019-02-05T03:56:03.641Z,26.12
2019-02-05T03:58:38.344Z,26.25
2019-02-05T04:01:32.442Z,26.35
2019-02-05T04:04:13.100Z,27.20
2019-02-05T04:07:06.140Z,26.60
2019-02-05T04:09:46.812Z,26.97
2019-02-05T04:12:36.021Z,27.13
2019-02-05T04:15:13.465Z,27.93
2019-02-05T04:18:03.283Z,27.73
2019-02-05T04:20:43.919Z,28.00
2019-02-05T04:23:34.694Z,28.07
2019-02-05T04:26:30.346Z,28.90
2019-02-05T04:29:07.590Z,29.50
2019-02-05T04:32:04.640Z,30.60
2019-02-05T04:34:36.309Z,31.77
2019-02-05T04:37:19.653Z,29.30
2019-02-05T04:40:18.282Z,29.30
2019-02-05T04:43:02.124Z,30.02
2019-02-05T04:45:45.885Z,29.73
2019-02-05T04:48:51.317Z,28.30
2019-02-05T04:51:37.766Z,28.80
2019-02-05T04:54:09.353Z,29.00
2019-02-05T04:56:57.717Z,42.97
2019-02-05T05:00:03.028Z,32.95
2019-02-05T05:02:40.775Z,37.73
2019-02-05T05:05:12.457Z,35.03
2019-02-05T05:07:50.160Z,30.95
2019-02-05T05:10:18.750Z,30.73
2019-02-05T05:12:47.316Z,32.48
2019-02-05T05:15:15.869Z,33.92
2019-02-05T05:17:44.453Z,32.07
2019-02-05T05:20:13.248Z,35.97
2019-02-05T05:22:42.565Z,38.27
2019-02-05T05:25:11.713Z,34.90
2019-02-05T05:27:40.375Z,36.50
2019-02-05T05:30:15.592Z,31.10
2019-02-05T05:32:44.171Z,33.05
2019-02-05T05:35:13.137Z,32.13
2019-02-05T05:37:42.329Z,31.07
2019-02-05T05:40:11.305Z,33.02
2019-02-05T05:42:39.885Z,31.10
2019-02-05T05:45:11.557Z,30.80
2019-02-05T05:47:40.127Z,36.10
2019-02-05T05:50:12.136Z,32.78
2019-02-05T05:52:40.841Z,33.10
2019-02-05T05:55:09.663Z,33.00
2019-02-05T05:57:38.297Z,33.15
2019-02-05T06:00:10.199Z,32.95
2019-02-05T06:02:39.928Z,31.23
2019-02-05T06:05:09.363Z,31.77
2019-02-05T06:07:37.943Z,30.95
2019-02-05T06:10:09.866Z,33.17
2019-02-05T06:12:38.468Z,33.20
2019-02-05T06:15:10.061Z,31.35
2019-02-05T06:17:38.647Z,35.63
2019-02-05T06:20:16.343Z,33.20
2019-02-05T06:22:45.256Z,39.48
2019-02-05T06:25:14.348Z,34.60
2019-02-05T06:27:43.050Z,33.10
2019-02-05T06:30:14.639Z,36.67
2019-02-05T06:32:43.275Z,32.75
2019-02-05T06:35:12.161Z,34.67
2019-02-05T06:37:40.875Z,35.00
2019-02-05T06:40:12.842Z,38.08
2019-02-05T06:42:41.414Z,32.70
2019-02-05T06:45:12.993Z,37.55
2019-02-05T06:47:41.724Z,34.30
2019-02-05T06:50:12.319Z,35.92
2019-02-05T06:52:41.043Z,36.50
2019-02-05T06:55:12.256Z,41.37
2019-02-05T06:57:40.923Z,37.20
2019-02-05T07:00:21.302Z,36.73
2019-02-05T07:02:52.923Z,37.55
2019-02-05T07:05:20.389Z,42.07
2019-02-05T07:07:48.937Z,38.23
2019-02-05T07:10:20.423Z,39.90
2019-02-05T07:12:49.115Z,37.67
2019-02-05T07:15:17.824Z,35.07
2019-02-05T07:17:50.026Z,38.75
2019-02-05T07:20:17.444Z,37.73
2019-02-05T07:22:46.234Z,37.87
2019-02-05T07:25:19.920Z,63.60
2019-02-05T07:27:48.813Z,39.27
2019-02-05T07:30:20.246Z,42.67
2019-02-05T07:32:48.975Z,35.43
2019-02-05T07:35:17.779Z,38.70
2019-02-05T07:37:46.691Z,34.70
2019-02-05T07:40:22.484Z,32.60
2019-02-05T07:42:51.230Z,34.50
2019-02-05T07:45:24.386Z,32.83
2019-02-05T07:47:53.465Z,34.40
2019-02-05T07:50:24.672Z,31.30
2019-02-05T07:52:53.385Z,31.73
2019-02-05T07:55:22.512Z,30.27
2019-02-05T07:57:51.137Z,29.30
2019-02-05T08:00:25.276Z,31.90
2019-02-05T08:02:53.896Z,31.07
2019-02-05T08:05:25.577Z,30.77
2019-02-05T08:07:54.261Z,31.77
2019-02-05T08:10:23.276Z,30.43
2019-02-05T08:12:52.286Z,32.55
2019-02-05T08:15:23.940Z,30.77
2019-02-05T08:17:52.629Z,29.43
2019-02-05T08:20:21.502Z,29.77
2019-02-05T08:22:50.173Z,29.50
2019-02-05T08:25:18.817Z,30.43
2019-02-05T08:27:47.454Z,29.73
2019-02-05T08:30:18.731Z,30.07
2019-02-05T08:32:47.365Z,29.92
2019-02-05T08:35:17.605Z,29.95
2019-02-05T08:37:46.236Z,31.87
2019-02-05T08:40:20.406Z,28.97
2019-02-05T08:42:49.294Z,29.70
2019-02-05T08:45:23.247Z,29.40
2019-02-05T08:48:11.889Z,28.57
2019-02-05T08:50:40.538Z,28.40
2019-02-05T08:53:09.085Z,28.30
2019-02-05T08:55:37.660Z,28.60
2019-02-05T08:58:09.510Z,27.50
2019-02-05T09:00:40.425Z,27.52
2019-02-05T09:03:10.825Z,26.70
2019-02-05T09:05:39.717Z,26.30
2019-02-05T09:08:08.438Z,27.30
2019-02-05T09:10:39.246Z,30.57
2019-02-05T09:13:07.930Z,27.62
2019-02-05T09:15:36.496Z,26.35
2019-02-05T09:18:06.105Z,26.35
2019-02-05T09:20:34.741Z,28.25
2019-02-05T09:23:03.358Z,26.52
2019-02-05T09:25:31.935Z,33.70
2019-02-05T09:28:00.476Z,27.37
2019-02-05T09:30:36.239Z,28.40
2019-02-05T09:33:11.145Z,27.77
2019-02-05T09:35:39.713Z,26.60
2019-02-05T09:38:08.508Z,27.58
2019-02-05T09:40:37.158Z,26.53
2019-02-05T09:43:05.925Z,25.57
2019-02-05T09:45:35.065Z,25.30
2019-02-05T09:48:03.680Z,24.65
2019-02-05T09:50:43.690Z,24.63
2019-02-05T09:53:02.525Z,23.20
2019-02-05T09:55:32.638Z,25.02
2019-02-05T09:58:02.497Z,26.33
2019-02-05T10:00:33.875Z,23.20
2019-02-05T10:03:02.570Z,21.70
2019-02-05T10:05:33.665Z,21.70
2019-02-05T10:08:02.278Z,21.60
2019-02-05T10:10:30.824Z,22.13
2019-02-05T10:12:59.967Z,20.90
2019-02-05T10:15:33.557Z,22.00
2019-02-05T10:18:02.587Z,22.30
2019-02-05T10:20:31.323Z,21.45
2019-02-05T10:23:02.220Z,20.20
2019-02-05T10:25:30.945Z,21.75
2019-02-05T10:27:59.520Z,20.33
2019-02-05T10:30:30.768Z,21.00
2019-02-05T10:33:00.078Z,20.20
2019-02-05T10:35:28.625Z,20.35
2019-02-05T10:37:57.331Z,20.57
2019-02-05T10:40:26.577Z,19.40
2019-02-05T10:42:55.217Z,19.17
2019-02-05T10:45:25.870Z,22.60
2019-02-05T10:47:54.985Z,17.97
2019-02-05T10:50:24.257Z,22.70
2019-02-05T10:52:53.258Z,15.13
2019-02-05T10:55:22.834Z,18.25
2019-02-05T10:57:55.836Z,17.63
2019-02-05T11:00:27.482Z,17.70
2019-02-05T11:02:57.307Z,20.27
2019-02-05T11:05:27.595Z,17.30
2019-02-05T11:07:56.242Z,15.47
2019-02-05T11:10:24.862Z,15.97
2019-02-05T11:12:53.682Z,15.23
2019-02-05T11:15:25.314Z,14.30
2019-02-05T11:17:53.884Z,15.97
2019-02-05T11:20:24.273Z,16.67
2019-02-05T11:22:53.093Z,14.50
2019-02-05T11:25:21.991Z,14.95
2019-02-05T11:27:50.567Z,15.00
2019-02-05T11:30:31.432Z,14.13
2019-02-05T11:33:00.007Z,14.50
2019-02-05T11:35:29.113Z,14.43
2019-02-05T11:37:57.700Z,14.00
2019-02-05T11:40:29.008Z,13.72
2019-02-05T11:42:57.585Z,13.77
2019-02-05T11:45:26.209Z,12.93
2019-02-05T11:47:55.232Z,13.75
2019-02-05T11:50:24.834Z,12.83
2019-02-05T11:52:53.700Z,13.50
2019-02-05T11:55:25.328Z,12.82
2019-02-05T11:57:53.922Z,12.75
2019-02-05T12:00:32.639Z,11.90
2019-02-05T12:03:01.629Z,11.83
2019-02-05T12:05:30.250Z,8.93
2019-02-05T12:07:59.366Z,10.00
2019-02-05T12:10:28.059Z,9.77
2019-02-05T12:12:56.704Z,10.47
2019-02-05T12:15:25.261Z,10.30
2019-02-05T12:17:53.848Z,10.65
2019-02-05T12:20:22.962Z,10.80
2019-02-05T12:22:51.418Z,9.90
2019-02-05T12:25:24.310Z,11.45
2019-02-05T12:27:52.906Z,10.72
2019-02-05T12:30:24.552Z,10.37
2019-02-05T12:32:53.193Z,11.33
2019-02-05T12:35:21.888Z,11.33
2019-02-05T12:37:50.449Z,11.10
2019-02-05T12:40:19.750Z,13.62
2019-02-05T12:42:48.470Z,14.03
2019-02-05T12:45:22.997Z,15.37
2019-02-05T12:47:51.568Z,13.93
2019-02-05T12:50:25.385Z,13.75
2019-02-05T12:52:54.110Z,14.57
2019-02-05T12:55:23.107Z,13.80
2019-02-05T12:57:51.668Z,14.03
2019-02-05T13:00:32.284Z,13.88
2019-02-05T13:03:01.109Z,13.78
2019-02-05T13:05:30.108Z,13.30
2019-02-05T13:07:59.197Z,14.33
2019-02-05T13:10:36.413Z,14.40
2019-02-05T13:13:06.529Z,13.50
2019-02-05T13:15:35.220Z,13.25
2019-02-05T13:18:05.028Z,13.18
2019-02-05T13:20:34.115Z,13.35
2019-02-05T13:23:04.230Z,14.00
2019-02-05T13:25:33.886Z,15.77
2019-02-05T13:28:02.610Z,15.50
2019-02-05T13:30:33.459Z,15.00
2019-02-05T13:33:02.200Z,15.03
2019-02-05T13:35:31.287Z,14.73
2019-02-05T13:37:59.931Z,14.60
2019-02-05T13:40:29.814Z,14.63
2019-02-05T13:43:00.123Z,14.30
2019-02-05T13:45:32.095Z,14.35
2019-02-05T13:48:00.746Z,15.23
2019-02-05T13:50:33.475Z,14.93
2019-02-05T13:53:01.801Z,15.00
2019-02-05T13:55:38.918Z,14.23
2019-02-05T13:58:07.930Z,14.03
2019-02-05T14:00:47.832Z,13.33
2019-02-05T14:03:16.769Z,13.93
2019-02-05T14:05:46.681Z,14.15
2019-02-05T14:08:15.395Z,12.33
2019-02-05T14:10:46.088Z,13.10
2019-02-05T14:13:14.798Z,12.93
2019-02-05T14:15:45.592Z,13.55
2019-02-05T14:18:14.281Z,13.03
2019-02-05T14:20:42.925Z,12.90
2019-02-05T14:23:11.674Z,13.03
2019-02-05T14:25:40.312Z,11.80
2019-02-05T14:28:08.945Z,11.20
2019-02-05T14:30:42.905Z,10.90
2019-02-05T14:33:11.530Z,9.80
2019-02-05T14:35:40.190Z,9.95
2019-02-05T14:38:09.546Z,9.68
2019-02-05T14:40:38.113Z,9.90
2019-02-05T14:43:07.110Z,9.28
2019-02-05T14:45:36.121Z,9.60
2019-02-05T14:48:05.814Z,9.40
2019-02-05T14:50:36.692Z,9.17
2019-02-05T14:53:07.379Z,9.38
2019-02-05T14:55:36.014Z,9.30
2019-02-05T14:58:06.900Z,9.90
2019-02-05T15:00:36.509Z,9.33
2019-02-05T15:03:10.156Z,10.63
2019-02-05T15:05:39.381Z,10.27
2019-02-05T15:08:08.771Z,10.30
2019-02-05T15:10:37.472Z,9.95
2019-02-05T15:13:06.777Z,9.97
2019-02-05T15:15:35.793Z,9.80
2019-02-05T15:18:05.879Z,10.23
2019-02-05T15:20:40.132Z,10.70
2019-02-05T15:23:08.820Z,10.20
2019-02-05T15:25:37.537Z,10.90
2019-02-05T15:28:06.528Z,10.60
2019-02-05T15:30:40.313Z,10.60
2019-02-05T15:33:22.134Z,10.45
2019-02-05T15:36:01.132Z,10.15
2019-02-05T15:38:30.173Z,10.50
2019-02-05T15:40:59.173Z,10.40
2019-02-05T15:43:28.137Z,10.00
2019-02-05T15:45:56.710Z,9.80
2019-02-05T15:48:25.186Z,10.20
2019-02-05T15:50:53.829Z,9.90
2019-02-05T15:53:23.270Z,10.78
2019-02-05T15:55:51.845Z,10.43
2019-02-05T15:58:20.456Z,9.40
2019-02-05T16:00:49.186Z,10.45
2019-02-05T16:03:17.752Z,9.90
2019-02-05T16:05:46.370Z,9.80
2019-02-05T16:08:14.953Z,10.60
2019-02-05T16:10:43.489Z,10.87
2019-02-05T16:13:12.081Z,10.70
2019-02-05T16:15:41.057Z,10.23
2019-02-05T16:18:09.713Z,10.40
2019-02-05T16:20:38.257Z,11.30
2019-02-05T16:23:07.037Z,10.33
2019-02-05T16:25:35.995Z,10.28
2019-02-05T16:28:05.096Z,11.07
2019-02-05T16:30:34.199Z,10.25
2019-02-05T16:33:02.762Z,11.23
2019-02-05T16:35:31.328Z,10.90
2019-02-05T16:37:59.962Z,11.03
2019-02-05T16:40:40.477Z,10.27
2019-02-05T16:43:09.051Z,11.90
2019-02-05T16:45:37.741Z,10.70
2019-02-05T16:48:06.450Z,10.53
2019-02-05T16:50:43.508Z,10.13
2019-02-05T16:53:12.613Z,9.45
2019-02-05T16:55:41.172Z,9.27
2019-02-05T16:58:09.865Z,9.33
2019-02-05T17:00:39.247Z,9.43
2019-02-05T17:03:08.760Z,9.78
2019-02-05T17:05:39.813Z,8.95
2019-02-05T17:08:08.817Z,9.10
2019-02-05T17:10:37.527Z,9.65
2019-02-05T17:13:06.169Z,10.68
2019-02-05T17:15:34.966Z,10.90
2019-02-05T17:18:03.663Z,10.63
2019-02-05T17:20:33.261Z,10.70
2019-02-05T17:23:01.866Z,10.20
2019-02-05T17:25:30.509Z,9.97
2019-02-05T17:28:01.020Z,10.07
2019-02-05T17:30:32.111Z,10.37
2019-02-05T17:33:01.080Z,10.00
2019-02-05T17:35:29.630Z,10.80
2019-02-05T17:37:58.353Z,10.70
2019-02-05T17:40:27.410Z,12.70
2019-02-05T17:42:56.308Z,13.43
2019-02-05T17:45:27.501Z,13.70
2019-02-05T17:47:56.408Z,15.23
2019-02-05T17:50:25.272Z,16.50
2019-02-05T17:52:53.829Z,18.10
2019-02-05T17:55:22.526Z,19.80
2019-02-05T17:57:51.151Z,20.90
2019-02-05T18:00:30.825Z,20.63
2019-02-05T18:02:59.625Z,20.25
2019-02-05T18:05:28.196Z,21.00
2019-02-05T18:07:57.032Z,21.67
2019-02-05T18:10:27.236Z,21.13
2019-02-05T18:12:56.097Z,21.00
2019-02-05T18:15:30.612Z,20.77
2019-02-05T18:17:59.373Z,19.90
2019-02-05T18:20:28.093Z,19.77
2019-02-05T18:22:56.904Z,19.27
2019-02-05T18:25:25.729Z,19.23
2019-02-05T18:27:54.446Z,20.17
2019-02-05T18:30:29.062Z,18.83
2019-02-05T18:33:03.715Z,20.00
2019-02-05T18:35:28.391Z,20.05
2019-02-05T18:37:58.058Z,19.75
2019-02-05T18:40:27.935Z,21.23
2019-02-05T18:42:57.001Z,20.93
2019-02-05T18:45:25.809Z,22.63
2019-02-05T18:47:54.521Z,21.25
2019-02-05T18:50:25.576Z,20.48
2019-02-05T18:52:54.661Z,19.90
2019-02-05T18:55:26.575Z,20.52
2019-02-05T18:57:55.530Z,19.92
2019-02-05T19:00:26.784Z,19.43
2019-02-05T19:02:56.026Z,20.30
2019-02-05T19:05:25.750Z,19.77
2019-02-05T19:07:54.750Z,18.87
2019-02-05T19:10:29.019Z,19.13
2019-02-05T19:12:57.988Z,19.20
2019-02-05T19:15:28.766Z,18.57
2019-02-05T19:17:57.581Z,19.57
2019-02-05T19:20:28.162Z,19.45
2019-02-05T19:22:57.013Z,19.10
2019-02-05T19:25:28.003Z,19.60
2019-02-05T19:28:05.921Z,19.05
2019-02-05T19:30:36.236Z,20.40
2019-02-05T19:33:05.361Z,23.20
2019-02-05T19:35:34.120Z,23.20
2019-02-05T19:38:03.650Z,24.50
2019-02-05T19:40:32.490Z,27.00
2019-02-05T19:43:01.741Z,25.80
2019-02-05T19:45:48.583Z,27.62
2019-02-05T19:48:18.777Z,27.82
2019-02-05T19:50:48.823Z,29.10
2019-02-05T19:53:17.630Z,29.10
2019-02-05T19:55:46.388Z,27.98
2019-02-05T19:58:15.206Z,27.98
2019-02-05T20:00:43.981Z,26.10
2019-02-05T20:03:12.962Z,26.03
2019-02-05T20:05:41.704Z,27.03
2019-02-05T20:08:10.394Z,25.23
2019-02-05T20:10:39.013Z,25.90
2019-02-05T20:13:10.730Z,25.03
2019-02-05T20:15:38.151Z,26.10
2019-02-05T20:18:07.021Z,25.85
2019-02-05T20:20:36.225Z,25.12
2019-02-05T20:23:05.217Z,24.97
2019-02-05T20:25:34.290Z,23.15
2019-02-05T20:28:03.326Z,23.27
2019-02-05T20:30:32.328Z,25.00
2019-02-05T20:33:01.521Z,25.57
2019-02-05T20:35:31.425Z,27.22
2019-02-05T20:38:00.446Z,27.20
2019-02-05T20:40:29.671Z,28.80
2019-02-05T20:42:58.970Z,29.02
2019-02-05T20:45:28.077Z,29.27
2019-02-05T20:47:57.329Z,29.27
2019-02-05T20:50:26.426Z,29.93
2019-02-05T20:52:55.597Z,30.10
2019-02-05T20:55:25.431Z,30.65
2019-02-05T20:57:54.129Z,32.00
2019-02-05T21:00:27.796Z,32.70
2019-02-05T21:02:56.527Z,33.55
2019-02-05T21:05:25.305Z,32.53
2019-02-05T21:07:54.126Z,31.40
2019-02-05T21:10:42.332Z,31.87
2019-02-05T21:13:11.030Z,31.77
2019-02-05T21:15:39.809Z,33.00
2019-02-05T21:18:08.538Z,32.88
2019-02-05T21:20:37.167Z,32.85
2019-02-05T21:23:05.809Z,33.00
2019-02-05T21:25:34.424Z,32.45
2019-02-05T21:28:03.313Z,34.27
2019-02-05T21:30:31.869Z,34.40
2019-02-05T21:33:00.441Z,35.57
2019-02-05T21:35:28.994Z,35.00
2019-02-05T21:37:57.860Z,33.87
2019-02-05T21:40:28.033Z,35.68
2019-02-05T21:42:56.674Z,35.40
2019-02-05T21:45:30.440Z,35.80
2019-02-05T21:47:59.013Z,37.48
2019-02-05T21:50:27.764Z,36.90
2019-02-05T21:52:56.783Z,35.58
2019-02-05T21:55:28.849Z,35.73
2019-02-05T21:57:57.709Z,34.37
2019-02-05T22:00:31.597Z,35.10
2019-02-05T22:03:01.975Z,35.00
2019-02-05T22:05:31.758Z,35.33
2019-02-05T22:08:00.774Z,36.87
2019-02-05T22:10:29.313Z,36.17
2019-02-05T22:12:58.129Z,35.80
2019-02-05T22:15:27.109Z,36.17
2019-02-05T22:17:55.852Z,36.40
2019-02-05T22:20:29.445Z,36.20
2019-02-05T22:22:58.093Z,36.90
2019-02-05T22:25:32.244Z,35.75
2019-02-05T22:28:00.953Z,36.33
2019-02-05T22:30:35.160Z,34.73
2019-02-05T22:33:05.352Z,36.47
2019-02-05T22:35:33.959Z,35.50
2019-02-05T22:38:02.540Z,34.83
2019-02-05T22:40:31.089Z,35.90
2019-02-05T22:42:59.661Z,36.30
2019-02-05T22:45:32.729Z,35.90
2019-02-05T22:48:01.369Z,36.83
2019-02-05T22:50:32.566Z,37.30
2019-02-05T22:53:02.294Z,37.20
2019-02-05T22:55:30.909Z,37.70
2019-02-05T22:57:59.536Z,36.63
2019-02-05T23:00:55.873Z,35.27
2019-02-05T23:03:30.545Z,37.07
2019-02-05T23:06:10.756Z,38.57
2019-02-05T23:08:39.321Z,35.85
2019-02-05T23:11:25.917Z,37.33
2019-02-05T23:13:54.624Z,37.30
2019-02-05T23:16:23.321Z,38.17
2019-02-05T23:18:51.891Z,38.77
2019-02-05T23:21:20.472Z,37.20
2019-02-05T23:23:49.050Z,39.45
2019-02-05T23:26:17.815Z,37.10
2019-02-05T23:28:46.406Z,37.88
2019-02-05T23:31:15.019Z,37.63
2019-02-05T23:33:44.674Z,39.15
2019-02-05T23:36:13.344Z,38.23
2019-02-05T23:38:42.352Z,39.90
2019-02-05T23:41:11.348Z,40.30
2019-02-05T23:43:39.905Z,39.63
2019-02-05T23:46:08.470Z,40.00
2019-02-05T23:48:37.042Z,39.20
2019-02-05T23:51:05.757Z,39.50
2019-02-05T23:53:34.322Z,38.97
2019-02-05T23:56:02.861Z,38.17
2019-02-05T23:58:31.624Z,37.50
